Time;durP1;ratioP1;P1;durP2;ratioP2;P2;SDS_P1;SDS_P2;PMS_P1;PMS_P2;Temp;Humidity;BMP_temperature;BMP_pressure;BME280_temperature;BME280_humidity;BME280_pressure;Samples;Min_cycle;Max_cycle;Signal;HPM_P1;HPM_P2
2022/01/12 00:01:44;;;;;;;9.25;2.45;;;4.00;1.00;;;;;;10249798;28;84532;-51
2022/01/12 00:06:44;;;;;;;4.90;2.80;;;3.90;1.00;;;;;;10250618;28;84809;-58
2022/01/12 00:11:45;;;;;;;6.57;2.78;;;3.90;1.00;;;;;;10265859;28;84098;-55
2022/01/12 00:16:48;;;;;;;5.80;2.33;;;3.90;1.00;;;;;;10250318;28;84011;-53
2022/01/12 00:21:48;;;;;;;6.38;3.10;;;4.00;1.00;;;;;;10249794;28;84891;-53
2022/01/12 00:37:29;;;;;;;3.95;1.92;;;3.90;1.00;;;;;;10217494;28;84552;-53
2022/01/12 00:42:31;;;;;;;5.93;3.10;;;3.90;1.00;;;;;;10250190;28;84211;-52
2022/01/12 00:47:31;;;;;;;4.50;2.15;;;3.90;1.00;;;;;;10247556;28;86830;-56
2022/01/12 00:52:32;;;;;;;6.07;2.78;;;3.90;1.00;;;;;;10263697;28;86018;-55
2022/01/12 00:57:33;;;;;;;9.63;2.95;;;3.80;1.00;;;;;;10246728;28;85989;-55
2022/01/12 01:02:33;;;;;;;4.85;2.60;;;3.80;1.00;;;;;;10247872;28;84186;-54
2022/01/12 01:07:34;;;;;;;3.38;2.20;;;3.80;1.00;;;;;;10248154;28;84554;-54
2022/01/12 01:28:25;;;;;;;4.63;2.10;;;3.80;1.00;;;;;;10204637;28;86070;-49
2022/01/12 01:33:27;;;;;;;4.57;2.20;;;3.60;1.00;;;;;;10221371;28;85999;-45
2022/01/12 01:38:28;;;;;;;3.42;2.30;;;3.70;1.00;;;;;;10205396;28;86237;-48
2022/01/12 01:53:55;;;;;;;5.70;2.67;;;3.90;1.00;;;;;;10205973;28;84824;-45
2022/01/12 01:58:58;;;;;;;7.50;3.10;;;3.90;1.00;;;;;;10203826;28;86788;-46
2022/01/12 02:04:03;;;;;;;7.53;2.67;;;4.10;1.00;;;;;;10203865;28;86121;-49
2022/01/12 02:09:05;;;;;;;5.40;2.72;;;4.10;1.00;;;;;;10219444;28;86127;-48
2022/01/12 02:14:28;;;;;;;6.18;2.55;;;4.10;1.00;;;;;;10196888;28;84647;-48
2022/01/12 02:19:47;;;;;;;8.05;2.70;;;4.10;1.00;;;;;;10204790;28;84846;-44
2022/01/12 02:40:40;;;;;;;5.57;2.88;;;4.30;1.00;;;;;;10211465;28;84905;-48
2022/01/12 02:56:24;;;;;;;8.10;2.97;;;4.30;1.00;;;;;;10209640;28;86101;-46
2022/01/12 03:06:38;;;;;;;5.43;2.92;;;4.30;1.00;;;;;;10209335;28;86922;-48
2022/01/12 03:11:39;;;;;;;4.97;2.65;;;4.30;1.00;;;;;;10225255;28;86167;-51
2022/01/12 03:16:48;;;;;;;7.20;2.88;;;4.20;1.00;;;;;;10225005;28;86817;-46
2022/01/12 03:21:56;;;;;;;7.30;2.90;;;4.20;1.00;;;;;;10210048;28;84791;-43
2022/01/12 03:26:56;;;;;;;4.85;2.28;;;4.20;1.00;;;;;;10208338;28;87026;-46
2022/01/12 03:31:59;;;;;;;7.13;3.45;;;4.20;1.00;;;;;;10208867;28;84986;-48
2022/01/12 03:42:19;;;;;;;5.40;2.78;;;4.30;1.00;;;;;;10209862;28;84835;-49
2022/01/12 03:47:20;;;;;;;6.97;3.58;;;4.50;1.00;;;;;;10224286;28;85091;-47
2022/01/12 03:52:21;;;;;;;7.55;3.40;;;4.50;1.00;;;;;;10209673;28;84970;-47
2022/01/12 03:57:22;;;;;;;5.28;2.60;;;4.50;1.00;;;;;;10207398;28;86197;-46
2022/01/12 04:02:24;;;;;;;7.60;3.13;;;4.50;1.00;;;;;;10207368;28;86875;-50
2022/01/12 04:12:44;;;;;;;10.95;3.35;;;4.60;1.00;;;;;;10207494;28;86099;-46
2022/01/12 04:17:44;;;;;;;8.05;3.67;;;4.60;1.00;;;;;;10223891;28;85161;-45
2022/01/12 04:28:05;;;;;;;4.93;3.00;;;4.50;1.00;;;;;;10207039;28;84776;-45
2022/01/12 04:33:05;;;;;;;7.57;3.03;;;4.50;1.00;;;;;;10207955;28;84923;-48
2022/01/12 04:38:06;;;;;;;6.28;3.58;;;4.50;1.00;;;;;;10205727;28;84969;-49
2022/01/12 04:43:08;;;;;;;6.05;3.13;;;4.40;1.00;;;;;;10206018;28;86160;-51
2022/01/12 04:53:16;;;;;;;5.97;3.28;;;4.40;1.00;;;;;;10207660;28;84054;-47
2022/01/12 04:58:18;;;;;;;10.30;3.35;;;4.50;1.00;;;;;;10221863;28;85955;-47
2022/01/12 05:13:50;;;;;;;5.93;3.08;;;4.40;1.00;;;;;;10201981;28;86614;-46
2022/01/12 05:18:53;;;;;;;8.02;3.78;;;4.30;1.00;;;;;;10188951;28;86996;-46
2022/01/12 05:23:55;;;;;;;9.68;4.18;;;4.20;1.00;;;;;;10221295;28;86859;-47
2022/01/12 05:28:56;;;;;;;7.32;3.90;;;4.20;1.00;;;;;;10187581;28;86146;-46
2022/01/12 05:34:00;;;;;;;6.45;3.55;;;4.30;1.00;;;;;;10187231;28;86875;-47
2022/01/12 05:39:03;;;;;;;9.73;4.35;;;4.30;1.00;;;;;;10188960;28;86891;-45
2022/01/12 05:44:06;;;;;;;9.52;3.80;;;4.30;1.00;;;;;;10190162;28;87023;-48
2022/01/12 05:54:27;;;;;;;8.23;4.05;;;4.30;1.00;;;;;;10185878;28;86918;-48
2022/01/12 05:59:28;;;;;;;10.27;4.10;;;4.40;1.00;;;;;;10174675;28;86680;-50
2022/01/12 06:04:30;;;;;;;7.55;3.58;;;4.40;1.00;;;;;;10187094;28;85738;-51
2022/01/12 06:09:31;;;;;;;15.88;4.75;;;4.40;1.00;;;;;;10187101;28;87005;-52
2022/01/12 06:14:32;;;;;;;7.60;3.60;;;4.40;1.00;;;;;;10187911;28;86971;-50
2022/01/12 06:19:33;;;;;;;8.75;3.47;;;4.40;1.00;;;;;;10187455;28;85105;-47
2022/01/12 06:24:47;;;;;;;9.68;4.72;;;4.30;1.00;;;;;;10219551;28;86624;-48
2022/01/12 06:30:04;;;;;;;13.13;5.03;;;4.30;1.00;;;;;;10186736;28;84904;-49
2022/01/12 06:35:05;;;;;;;9.65;4.10;;;4.20;1.00;;;;;;10203007;28;85120;-48
2022/01/12 06:40:06;;;;;;;8.88;4.97;;;4.20;1.00;;;;;;10186192;28;85960;-50
2022/01/12 06:45:09;;;;;;;10.30;4.45;;;4.30;1.00;;;;;;10218856;28;85984;-49
2022/01/12 06:50:10;;;;;;;9.15;4.38;;;4.30;1.00;;;;;;10185954;28;85656;-46
2022/01/12 06:55:11;;;;;;;11.10;4.53;;;4.30;1.00;;;;;;10186710;28;87208;-51
2022/01/12 07:00:12;;;;;;;19.80;4.60;;;4.30;1.00;;;;;;10186301;28;86779;-61
2022/01/12 07:05:13;;;;;;;10.57;5.05;;;4.20;1.00;;;;;;10217465;28;86908;-48
2022/01/12 07:10:13;;;;;;;11.90;4.90;;;4.20;9.90;;;;;;10186514;28;86917;-49
2022/01/12 07:15:17;;;;;;;16.85;5.85;;;4.20;45.60;;;;;;10234119;22;86770;-47
2022/01/12 07:20:18;;;;;;;9.98;5.28;;;4.20;57.40;;;;;;10268654;28;86926;-53
2022/01/12 07:25:19;;;;;;;14.00;5.88;;;3.90;99.90;;;;;;10297700;28;85750;-51
2022/01/12 07:30:22;;;;;;;14.00;5.60;;;3.80;99.90;;;;;;10296635;28;85049;-53
2022/01/12 07:35:23;;;;;;;14.23;4.82;;;3.80;99.90;;;;;;10309040;28;85830;-51
2022/01/12 07:40:24;;;;;;;16.65;5.97;;;3.70;99.90;;;;;;10324258;28;84897;-52
2022/01/12 07:45:25;;;;;;;19.55;6.30;;;3.80;99.90;;;;;;10332915;28;85050;-52
2022/01/12 07:50:25;;;;;;;12.88;5.47;;;3.80;99.90;;;;;;10332453;28;84878;-57
2022/01/12 07:55:27;;;;;;;11.88;6.38;;;3.70;99.90;;;;;;10329397;28;84705;-53
2022/01/12 08:00:27;;;;;;;13.35;5.57;;;3.70;99.90;;;;;;10331024;28;85009;-58
2022/01/12 08:05:28;;;;;;;11.80;6.13;;;3.80;99.90;;;;;;10330252;28;84910;-60
2022/01/12 08:10:29;;;;;;;17.92;6.07;;;3.90;99.90;;;;;;10329162;28;84124;-57
2022/01/12 08:15:30;;;;;;;17.58;6.55;;;3.90;99.90;;;;;;10329712;28;84842;-58
2022/01/12 08:20:31;;;;;;;15.95;6.95;;;3.90;99.90;;;;;;10330505;28;85206;-53
2022/01/12 08:25:31;;;;;;;20.13;7.90;;;3.90;99.90;;;;;;10266443;28;84266;-58
2022/01/12 08:30:34;;;;;;;22.42;7.88;;;3.90;99.90;;;;;;10298029;28;84233;-53
2022/01/12 08:35:35;;;;;;;21.48;7.95;;;3.80;99.90;;;;;;10330499;28;84778;-57
2022/01/12 08:40:38;;;;;;;20.80;7.28;;;3.90;99.90;;;;;;10321198;28;84781;-55
2022/01/12 08:45:39;;;;;;;27.75;9.57;;;3.90;99.90;;;;;;10287234;28;84314;-57
2022/01/12 08:50:40;;;;;;;23.67;9.63;;;3.90;99.90;;;;;;10287718;28;84167;-56
2022/01/12 08:55:41;;;;;;;36.47;8.68;;;3.90;99.90;;;;;;10285638;28;85829;-54
2022/01/12 09:00:41;;;;;;;23.65;9.13;;;3.90;99.90;;;;;;10288572;28;84973;-56
2022/01/12 09:05:42;;;;;;;25.02;8.13;;;3.80;99.90;;;;;;10288195;28;84205;-59
2022/01/12 09:10:42;;;;;;;32.05;10.50;;;3.80;99.90;;;;;;10288164;28;84750;-55
2022/01/12 09:15:43;;;;;;;24.65;8.30;;;3.80;99.90;;;;;;10285243;28;84934;-57
2022/01/12 09:20:45;;;;;;;34.05;9.00;;;3.90;99.90;;;;;;10285866;28;84032;-58
2022/01/12 09:25:46;;;;;;;34.40;10.18;;;3.90;99.90;;;;;;10268902;28;84166;-57
2022/01/12 09:30:47;;;;;;;29.30;9.70;;;3.90;99.90;;;;;;10251946;28;84217;-55
2022/01/12 09:35:49;;;;;;;26.27;8.73;;;4.00;99.90;;;;;;10245514;28;84667;-58
2022/01/12 09:40:54;;;;;;;30.70;7.75;;;4.10;99.90;;;;;;10277085;28;84197;-56
2022/01/12 09:45:55;;;;;;;21.45;7.80;;;4.00;99.90;;;;;;10284291;28;84783;-56
2022/01/12 09:50:59;;;;;;;30.33;10.45;;;4.10;99.90;;;;;;10269131;28;84182;-56
2022/01/12 09:56:03;;;;;;;32.22;11.20;;;4.10;99.90;;;;;;10292049;28;84217;-55
2022/01/12 10:01:04;;;;;;;26.48;8.90;;;4.20;99.90;;;;;;10264467;28;85041;-57
2022/01/12 10:06:15;;;;;;;27.60;9.68;;;4.20;99.90;;;;;;10266049;28;85194;-57
2022/01/12 10:11:15;;;;;;;29.02;9.43;;;4.10;99.90;;;;;;10283036;28;84077;-60
2022/01/12 10:16:21;;;;;;;28.60;10.13;;;4.20;99.90;;;;;;10284320;28;86552;-57
2022/01/12 10:21:40;;;;;;;23.42;9.27;;;4.20;99.90;;;;;;10286420;28;84969;-56
2022/01/12 10:26:45;;;;;;;22.95;8.68;;;4.20;99.90;;;;;;10285111;28;84905;-57
2022/01/12 10:31:56;;;;;;;22.85;9.45;;;4.20;99.90;;;;;;10279876;28;85867;-56
2022/01/12 10:36:57;;;;;;;27.73;10.13;;;4.30;99.90;;;;;;10253277;28;85923;-54
2022/01/12 10:42:07;;;;;;;25.45;8.75;;;4.30;99.90;;;;;;10316989;28;84943;-56
2022/01/12 10:47:13;;;;;;;26.10;9.02;;;4.40;99.90;;;;;;10286414;28;84079;-58
2022/01/12 10:52:14;;;;;;;19.73;8.07;;;4.50;99.90;;;;;;10314144;28;84985;-57
2022/01/12 10:57:24;;;;;;;20.80;8.48;;;4.50;99.90;;;;;;10284925;28;85440;-55
2022/01/12 11:02:26;;;;;;;22.38;7.97;;;4.50;99.90;;;;;;10292672;28;84106;-57
2022/01/12 11:07:30;;;;;;;24.05;9.73;;;4.60;99.90;;;;;;10291325;28;85315;-57
2022/01/12 11:12:30;;;;;;;20.45;7.72;;;4.70;99.90;;;;;;10291609;28;84113;-57
2022/01/12 11:17:31;;;;;;;25.67;9.65;;;4.70;99.90;;;;;;10291140;28;84264;-51
2022/01/12 11:22:44;;;;;;;22.55;8.68;;;4.80;99.90;;;;;;10292163;28;85264;-53
2022/01/12 11:27:51;;;;;;;21.25;7.40;;;4.90;99.90;;;;;;10287897;28;84266;-56
2022/01/12 11:32:56;;;;;;;20.70;8.50;;;5.10;99.90;;;;;;10298237;28;84279;-51
2022/01/12 11:37:59;;;;;;;19.33;7.68;;;5.30;99.90;;;;;;10292532;28;84294;-51
2022/01/12 11:43:00;;;;;;;23.42;7.82;;;5.50;99.90;;;;;;10293584;28;84895;-50
2022/01/12 11:48:01;;;;;;;18.17;7.28;;;5.60;99.90;;;;;;10289575;28;84937;-54
2022/01/12 11:53:02;;;;;;;18.55;7.15;;;5.70;99.90;;;;;;10316284;28;84230;-56
2022/01/12 11:58:03;;;;;;;18.80;6.90;;;5.90;99.90;;;;;;10333999;28;84908;-50
2022/01/12 12:03:15;;;;;;;18.70;7.70;;;6.00;99.90;;;;;;10323742;28;84214;-53
2022/01/12 12:08:24;;;;;;;16.33;6.97;;;6.10;99.90;;;;;;10290186;28;84902;-52
2022/01/12 12:13:25;;;;;;;17.98;6.63;;;6.40;99.90;;;;;;10291570;28;84958;-52
2022/01/12 12:18:26;;;;;;;16.02;6.38;;;6.50;99.90;;;;;;10290733;28;85041;-53
2022/01/12 12:23:30;;;;;;;13.88;6.32;;;6.50;99.90;;;;;;10290829;28;86535;-54
2022/01/12 12:28:31;;;;;;;15.85;6.30;;;6.40;99.90;;;;;;10292591;28;86597;-50
2022/01/12 12:33:31;;;;;;;14.40;6.55;;;6.30;99.90;;;;;;10293503;28;84397;-53
2022/01/12 12:38:32;;;;;;;16.30;7.15;;;6.50;99.90;;;;;;10301653;28;84189;-55
2022/01/12 12:43:36;;;;;;;14.82;5.82;;;6.70;99.90;;;;;;10330338;28;85004;-55
2022/01/12 12:48:39;;;;;;;14.70;6.28;;;6.90;99.90;;;;;;10339430;28;85208;-54
2022/01/12 12:53:43;;;;;;;16.20;5.18;;;6.90;99.90;;;;;;10333415;28;84148;-50
2022/01/12 12:58:51;;;;;;;13.50;5.10;;;6.90;99.90;;;;;;10297032;28;85009;-54
2022/01/12 13:03:54;;;;;;;12.07;4.78;;;6.90;99.90;;;;;;10287958;28;84887;-57
2022/01/12 13:09:04;;;;;;;13.48;5.68;;;6.90;87.20;;;;;;10285819;28;85275;-57
2022/01/12 13:14:07;;;;;;;14.82;5.75;;;7.00;12.30;;;;;;10318259;22;86577;-56
2022/01/12 13:19:21;;;;;;;11.93;5.90;;;7.10;29.30;;;;;;10247915;28;84769;-54
2022/01/12 13:24:23;;;;;;;12.75;5.57;;;7.10;1.00;;;;;;10248822;28;84199;-56
2022/01/12 13:29:24;;;;;;;13.90;5.00;;;7.20;1.00;;;;;;10248816;28;85091;-55
2022/01/12 13:34:30;;;;;;;4.68;2.95;;;7.30;1.00;;;;;;10248863;28;84879;-55
2022/01/12 13:39:31;;;;;;;6.50;3.15;;;7.10;1.00;;;;;;10247203;28;84960;-57
2022/01/12 13:44:32;;;;;;;9.15;3.13;;;7.00;1.00;;;;;;10248404;28;84220;-56
2022/01/12 13:49:37;;;;;;;7.90;3.65;;;6.90;1.00;;;;;;10229945;28;85329;-51
2022/01/12 13:54:42;;;;;;;8.55;3.78;;;6.70;1.00;;;;;;10247834;28;84206;-56
2022/01/12 13:59:50;;;;;;;7.65;3.60;;;6.70;1.00;;;;;;10250038;28;85010;-55
2022/01/12 14:05:04;;;;;;;6.32;4.00;;;6.70;1.00;;;;;;10244052;28;84055;-53
2022/01/12 14:10:07;;;;;;;8.85;3.35;;;6.70;1.00;;;;;;10241868;28;84109;-54
2022/01/12 14:15:09;;;;;;;8.63;3.45;;;6.60;1.00;;;;;;10243820;28;85405;-53
2022/01/12 14:20:23;;;;;;;6.35;3.20;;;6.60;1.00;;;;;;10244275;28;86129;-53
2022/01/12 14:25:48;;;;;;;10.63;3.30;;;6.60;1.00;;;;;;10247638;28;85457;-55
2022/01/12 14:30:49;;;;;;;6.88;3.60;;;6.60;1.00;;;;;;10249810;28;85000;-54
2022/01/12 14:35:50;;;;;;;6.82;3.60;;;6.60;1.00;;;;;;10250924;28;84980;-58
2022/01/12 14:40:51;;;;;;;11.48;4.38;;;6.50;1.00;;;;;;10251141;28;84965;-54
2022/01/12 14:45:51;;;;;;;7.00;4.30;;;6.50;1.00;;;;;;10251480;28;84020;-56
2022/01/12 14:50:54;;;;;;;12.57;4.43;;;6.50;1.00;;;;;;10252315;28;84829;-48
2022/01/12 14:55:57;;;;;;;7.68;3.35;;;6.50;1.00;;;;;;10250907;28;85370;-46
2022/01/12 15:00:59;;;;;;;10.98;4.13;;;6.40;1.00;;;;;;10253794;28;84851;-48
2022/01/12 15:06:03;;;;;;;8.07;4.18;;;6.40;1.00;;;;;;10248451;28;84235;-48
2022/01/12 15:11:04;;;;;;;8.07;5.00;;;6.40;1.00;;;;;;10249479;28;84994;-49
2022/01/12 15:16:05;;;;;;;11.57;4.45;;;6.30;1.00;;;;;;10247062;28;84105;-52
2022/01/12 15:21:06;;;;;;;7.65;4.40;;;6.40;1.00;;;;;;10242271;28;84478;-50
2022/01/12 15:26:07;;;;;;;10.00;4.53;;;6.30;1.00;;;;;;10248474;28;84363;-47
2022/01/12 15:31:07;;;;;;;9.60;4.75;;;6.20;1.00;;;;;;10262163;28;84889;-47
2022/01/12 15:36:08;;;;;;;9.18;4.07;;;6.20;1.00;;;;;;10245501;28;84710;-49
2022/01/12 15:41:09;;;;;;;9.90;4.75;;;6.20;1.00;;;;;;10246393;28;84788;-48
2022/01/12 15:46:09;;;;;;;9.82;4.70;;;6.10;1.00;;;;;;10245936;28;84177;-46
2022/01/12 15:51:10;;;;;;;9.60;5.10;;;6.00;1.00;;;;;;10245837;28;84966;-47
2022/01/12 15:56:11;;;;;;;10.38;4.50;;;5.80;1.00;;;;;;10244782;28;84337;-49
2022/01/12 16:01:11;;;;;;;12.20;5.03;;;5.90;1.00;;;;;;10246912;28;84433;-45
2022/01/12 16:06:12;;;;;;;13.90;5.32;;;5.90;1.00;;;;;;10246799;28;84053;-50
2022/01/12 16:11:13;;;;;;;9.02;4.55;;;5.90;1.00;;;;;;10236582;28;85054;-46
2022/01/12 16:16:13;;;;;;;10.35;4.20;;;5.60;16.70;;;;;;10248705;28;84955;-46
2022/01/12 16:21:14;;;;;;;10.30;4.90;;;5.60;66.70;;;;;;10248826;28;85943;-51
2022/01/12 16:26:14;;;;;;;9.73;4.43;;;5.50;48.50;;;;;;10238110;28;84949;-47
2022/01/12 16:31:23;;;;;;;14.52;4.28;;;5.50;92.80;;;;;;10235952;28;85098;-46
2022/01/12 16:36:28;;;;;;;8.30;3.53;;;5.50;4.40;;;;;;10246117;28;84325;-47
2022/01/12 16:41:29;;;;;;;9.75;3.75;;;5.30;57.60;;;;;;10247175;28;84744;-50
2022/01/12 16:46:30;;;;;;;7.40;3.92;;;5.30;93.70;;;;;;10242835;28;84280;-46
2022/01/12 16:51:30;;;;;;;5.15;3.25;;;5.30;42.10;;;;;;10234906;28;86823;-46
2022/01/12 16:56:31;;;;;;;9.85;3.78;;;5.20;90.40;;;;;;10211799;28;84891;-47
2022/01/12 17:01:32;;;;;;;8.23;3.38;;;5.20;24.10;;;;;;10228935;28;84231;-46
2022/01/12 17:06:32;;;;;;;10.77;4.22;;;5.10;9.10;;;;;;10239884;28;85254;-46
2022/01/12 17:11:34;;;;;;;12.98;4.70;;;5.00;15.70;;;;;;10223776;28;85032;-44
2022/01/12 17:16:37;;;;;;;11.07;3.95;;;5.00;19.80;;;;;;10264045;28;84358;-44
2022/01/12 17:21:39;;;;;;;8.45;4.57;;;4.90;44.00;;;;;;10287682;28;84124;-45
2022/01/12 17:26:40;;;;;;;9.77;4.05;;;4.90;12.90;;;;;;10235386;28;86166;-45
2022/01/12 17:31:43;;;;;;;10.73;4.57;;;4.80;18.80;;;;;;10246922;28;84827;-43
2022/01/12 17:36:48;;;;;;;8.45;4.38;;;4.50;83.50;;;;;;10242700;28;86105;-44
2022/01/12 17:42:10;;;;;;;9.27;4.88;;;4.50;99.90;;;;;;10246854;28;84989;-45
2022/01/12 17:47:14;;;;;;;10.90;4.88;;;4.40;95.70;;;;;;10237228;28;84315;-46
2022/01/12 17:52:14;;;;;;;14.00;5.05;;;4.20;99.90;;;;;;10244219;28;84281;-46
2022/01/12 17:57:15;;;;;;;13.50;6.43;;;4.00;99.90;;;;;;10235076;28;85965;-51
2022/01/12 18:02:15;;;;;;;19.52;6.43;;;4.00;99.90;;;;;;10245811;28;85150;-41
2022/01/12 18:07:16;;;;;;;12.32;5.18;;;4.20;99.90;;;;;;10264862;28;84890;-44
2022/01/12 18:12:17;;;;;;;12.38;6.22;;;4.20;99.90;;;;;;10259819;28;84289;-50
2022/01/12 18:17:19;;;;;;;13.90;6.18;;;4.10;99.90;;;;;;10239431;28;84178;-50
2022/01/12 18:22:21;;;;;;;13.43;6.00;;;4.20;99.90;;;;;;10253272;28;84859;-47
2022/01/12 18:27:22;;;;;;;12.70;5.55;;;4.20;99.90;;;;;;10251983;28;84992;-49
2022/01/12 18:32:24;;;;;;;13.52;6.30;;;4.10;99.90;;;;;;10230912;28;86423;-48
2022/01/12 18:37:24;;;;;;;20.27;7.00;;;4.00;99.90;;;;;;10237994;28;85107;-51
2022/01/12 18:42:25;;;;;;;14.38;6.15;;;3.90;99.90;;;;;;10216175;28;84820;-53
2022/01/12 18:47:26;;;;;;;17.65;6.45;;;3.90;99.90;;;;;;10227147;23;84885;-47
2022/01/12 18:52:26;;;;;;;15.82;6.45;;;3.90;99.90;;;;;;10222492;28;86726;-51
2022/01/12 18:57:27;;;;;;;13.95;6.10;;;3.90;99.90;;;;;;10209492;28;85337;-51
2022/01/12 19:02:28;;;;;;;25.02;6.70;;;3.90;99.90;;;;;;10206460;28;84282;-47
2022/01/12 19:07:28;;;;;;;17.27;6.43;;;4.00;99.90;;;;;;10211495;28;84094;-47
2022/01/12 19:12:29;;;;;;;21.38;7.05;;;3.90;99.90;;;;;;10219830;28;84245;-46
2022/01/12 19:17:30;;;;;;;14.60;6.57;;;3.80;99.90;;;;;;10232664;28;87078;-48
2022/01/12 19:22:33;;;;;;;15.52;6.65;;;3.80;99.90;;;;;;10208571;28;85181;-51
2022/01/12 19:27:34;;;;;;;14.85;6.18;;;3.80;99.90;;;;;;10210105;28;84931;-50
2022/01/12 19:32:36;;;;;;;18.05;7.07;;;3.90;99.90;;;;;;10192013;28;86464;-48
2022/01/12 19:37:37;;;;;;;20.70;7.95;;;3.90;99.90;;;;;;10214303;28;84315;-50
2022/01/12 19:42:38;;;;;;;17.67;7.07;;;3.80;99.90;;;;;;10242970;28;84138;-47
2022/01/12 19:47:39;;;;;;;14.95;6.82;;;3.80;99.90;;;;;;10227258;28;85072;-49
2022/01/12 19:52:50;;;;;;;18.05;7.18;;;3.80;99.90;;;;;;10207089;28;87386;-52
2022/01/12 19:57:56;;;;;;;11.38;6.13;;;3.90;99.90;;;;;;10217483;28;84508;-48
2022/01/12 20:03:05;;;;;;;14.30;6.07;;;3.80;99.90;;;;;;10209457;28;84226;-49
2022/01/12 20:08:44;;;;;;;14.13;5.90;;;3.80;99.90;;;;;;10209744;28;87204;-46
2022/01/12 20:13:47;;;;;;;17.55;7.35;;;3.80;99.90;;;;;;10209050;28;84308;-49
2022/01/12 20:24:26;;;;;;;20.83;7.35;;;3.70;99.90;;;;;;10220619;28;84975;-48
2022/01/12 20:29:29;;;;;;;20.85;8.20;;;3.40;99.90;;;;;;10244542;28;86100;-46
2022/01/12 20:34:31;;;;;;;17.83;7.30;;;3.40;99.90;;;;;;10252115;28;85967;-47
2022/01/12 20:39:32;;;;;;;22.60;8.25;;;3.60;99.90;;;;;;10251592;28;84776;-49
2022/01/12 20:44:34;;;;;;;21.10;9.15;;;3.50;99.90;;;;;;10215948;28;84959;-50
2022/01/12 20:49:36;;;;;;;22.65;8.45;;;3.60;99.90;;;;;;10213391;28;85071;-55
2022/01/12 20:54:36;;;;;;;25.92;9.05;;;3.60;99.90;;;;;;10208346;28;86489;-49
2022/01/12 20:59:39;;;;;;;28.70;9.65;;;3.50;99.90;;;;;;10215340;28;85967;-55
2022/01/12 21:04:41;;;;;;;27.20;10.02;;;3.50;99.90;;;;;;10208413;28;84877;-49
2022/01/12 21:09:42;;;;;;;27.45;8.90;;;3.50;99.90;;;;;;10223954;28;86336;-48
2022/01/12 21:14:45;;;;;;;27.20;10.43;;;3.40;99.90;;;;;;10204983;28;84946;-45
2022/01/12 21:19:45;;;;;;;26.13;9.68;;;3.40;99.90;;;;;;10206690;28;86967;-50
2022/01/12 21:24:46;;;;;;;27.33;8.77;;;3.50;99.90;;;;;;10207712;28;92202;-49
2022/01/12 21:29:46;;;;;;;28.00;10.80;;;3.40;99.90;;;;;;10206646;28;84325;-52
2022/01/12 21:34:52;;;;;;;27.15;10.18;;;3.40;99.90;;;;;;10207466;28;84155;-52
2022/01/12 21:39:57;;;;;;;22.27;8.90;;;3.50;99.90;;;;;;10206222;28;85017;-52
2022/01/12 21:44:59;;;;;;;26.63;9.23;;;3.60;99.90;;;;;;10206927;28;84746;-49
2022/01/12 21:49:59;;;;;;;27.95;9.70;;;3.60;99.90;;;;;;10206597;28;84166;-54
2022/01/12 21:55:00;;;;;;;27.90;10.48;;;3.60;99.90;;;;;;10207207;28;84763;-47
2022/01/12 22:00:04;;;;;;;29.52;9.40;;;3.50;99.90;;;;;;10206346;28;84190;-48
2022/01/12 22:05:06;;;;;;;30.85;9.45;;;3.50;99.90;;;;;;10205744;28;84454;-49
2022/01/12 22:10:08;;;;;;;29.88;11.15;;;3.60;99.90;;;;;;10205521;28;84959;-49
2022/01/12 22:15:09;;;;;;;32.67;11.77;;;3.60;99.90;;;;;;10205621;28;84977;-50
2022/01/12 22:20:10;;;;;;;38.25;12.05;;;3.60;99.90;;;;;;10205226;28;84795;-51
2022/01/12 22:25:11;;;;;;;49.60;14.73;;;3.70;99.90;;;;;;10206018;28;84263;-48
2022/01/12 22:30:12;;;;;;;38.60;13.68;;;3.60;99.90;;;;;;10205573;28;84834;-52
2022/01/12 22:35:13;;;;;;;37.67;13.55;;;3.60;99.90;;;;;;10205647;28;84010;-48
2022/01/12 22:40:14;;;;;;;41.97;14.00;;;3.70;99.90;;;;;;10205494;28;86099;-50
2022/01/12 22:45:15;;;;;;;35.63;13.93;;;3.70;99.90;;;;;;10210909;28;85118;-54
2022/01/12 22:50:16;;;;;;;37.13;13.15;;;3.60;99.90;;;;;;10212412;28;84956;-50
2022/01/12 22:55:17;;;;;;;32.47;12.43;;;3.60;99.90;;;;;;10211932;28;84246;-53
2022/01/12 23:00:18;;;;;;;29.92;12.10;;;3.60;99.90;;;;;;10211987;28;84106;-49
2022/01/12 23:05:18;;;;;;;34.45;12.13;;;3.50;99.90;;;;;;10211154;28;84152;-50
2022/01/12 23:10:19;;;;;;;41.58;12.85;;;3.50;99.90;;;;;;10209688;28;84171;-50
2022/01/12 23:15:20;;;;;;;43.58;15.80;;;3.60;99.90;;;;;;10211059;28;84858;-47
2022/01/12 23:20:20;;;;;;;35.35;14.02;;;3.60;99.90;;;;;;10209528;28;86333;-48
2022/01/12 23:25:21;;;;;;;37.78;14.32;;;3.70;99.90;;;;;;10211119;28;84177;-47
2022/01/12 23:30:24;;;;;;;40.90;12.48;;;3.70;99.90;;;;;;10210055;28;84839;-49
